Time;durP1;ratioP1;P1;durP2;ratioP2;P2;SDS_P1;SDS_P2;PMS_P1;PMS_P2;Temp;Humidity;BMP_temperature;BMP_pressure;BME280_temperature;BME280_humidity;BME280_pressure;Samples;Min_cycle;Max_cycle;Signal;HPM_P1;HPM_P2
2023/05/25 00:00:08;;;;;;;33.00;11.23;;;;;;;9.80;100.00;101940.53;5103484;28;20027;-74
2023/05/25 00:02:35;;;;;;;32.08;10.48;;;;;;;9.76;100.00;101928.41;5085042;28;20043;-74
2023/05/25 00:05:01;;;;;;;35.38;12.05;;;;;;;9.76;100.00;101928.41;5082441;28;20103;-74
2023/05/25 00:07:27;;;;;;;30.13;10.27;;;;;;;9.73;100.00;101930.34;5094797;28;20032;-75
2023/05/25 00:09:52;;;;;;;31.85;10.80;;;;;;;9.76;100.00;101928.41;5078191;28;20099;-74
2023/05/25 00:12:18;;;;;;;34.23;11.97;;;;;;;9.70;100.00;101913.78;5094135;28;20498;-74
2023/05/25 00:14:43;;;;;;;25.13;12.10;;;;;;;9.73;100.00;101929.50;5084665;28;20189;-74
2023/05/25 00:17:09;;;;;;;27.83;12.83;;;;;;;9.64;100.00;101917.78;5086969;28;20122;-74
2023/05/25 00:19:41;;;;;;;25.75;11.07;;;;;;;9.72;100.00;101922.50;5063090;28;20031;-74
2023/05/25 00:22:07;;;;;;;34.40;13.27;;;;;;;9.55;100.00;101915.03;5084807;28;20035;-74
2023/05/25 00:24:33;;;;;;;33.60;13.63;;;;;;;9.53;100.00;101920.53;5097120;28;20146;-74
2023/05/25 00:26:59;;;;;;;34.45;11.88;;;;;;;9.50;100.00;101918.09;5100691;28;20134;-74
2023/05/25 00:29:25;;;;;;;33.22;10.60;;;;;;;9.55;100.00;101923.03;5080934;28;20062;-74
2023/05/25 00:31:51;;;;;;;32.83;10.82;;;;;;;9.57;100.00;101919.28;5073244;28;20137;-74
2023/05/25 00:34:17;;;;;;;27.40;10.25;;;;;;;9.47;100.00;101911.19;5086130;28;20020;-74
2023/05/25 00:36:42;;;;;;;25.87;11.63;;;;;;;9.50;100.00;101918.09;5089533;28;20046;-74
2023/05/25 00:39:08;;;;;;;33.42;10.27;;;;;;;9.50;100.00;101915.44;5081352;28;20028;-74
2023/05/25 00:41:40;;;;;;;31.13;10.52;;;;;;;9.53;100.00;101923.19;5084458;28;20528;-74
2023/05/25 00:44:10;;;;;;;26.13;11.45;;;;;;;9.44;100.00;101907.94;5072456;28;20031;-74
2023/05/25 00:46:43;;;;;;;38.58;13.00;;;;;;;9.38;100.00;101908.44;5084343;28;20035;-74
2023/05/25 00:49:12;;;;;;;33.20;10.35;;;;;;;9.30;100.00;101911.75;5067658;28;20033;-74
2023/05/25 00:51:38;;;;;;;37.88;9.93;;;;;;;9.27;100.00;101914.63;5071746;28;20113;-74
2023/05/25 00:54:05;;;;;;;33.80;11.05;;;;;;;9.29;100.00;101913.56;5083743;28;20596;-74
2023/05/25 00:56:34;;;;;;;27.25;11.55;;;;;;;9.27;100.00;101917.31;5084217;28;20032;-74
2023/05/25 00:59:03;;;;;;;35.53;10.63;;;;;;;9.24;100.00;101918.41;5078759;28;20036;-74
2023/05/25 01:01:32;;;;;;;26.65;10.75;;;;;;;9.22;100.00;101915.00;5069441;28;20020;-74
2023/05/25 01:04:00;;;;;;;30.13;11.27;;;;;;;9.21;100.00;101924.00;5067687;28;20058;-74
2023/05/25 01:06:30;;;;;;;34.78;11.93;;;;;;;9.19;100.00;101923.28;5099278;28;20024;-74
2023/05/25 01:09:01;;;;;;;33.70;11.32;;;;;;;9.22;100.00;101925.69;5078271;28;20036;-74
2023/05/25 01:11:31;;;;;;;32.80;11.05;;;;;;;9.15;100.00;101921.81;5101694;28;20040;-74
2023/05/25 01:13:57;;;;;;;33.80;11.25;;;;;;;9.18;100.00;101932.25;5078521;28;20032;-74
2023/05/25 01:16:24;;;;;;;;;;;;;;;9.05;100.00;101926.22;5080053;28;20102;-74
2023/05/25 01:18:51;;;;;;;34.28;11.60;;;;;;;8.98;100.00;101931.19;5086966;28;20018;-74
2023/05/25 01:21:25;;;;;;;37.40;13.20;;;;;;;8.96;100.00;101925.13;5071767;28;20088;-74
2023/05/25 01:24:21;;;;;;;29.02;13.02;;;;;;;8.99;100.00;101924.91;5087075;28;20114;-74
2023/05/25 01:26:53;;;;;;;31.20;12.95;;;;;;;8.92;100.00;101920.16;5059804;28;20065;-74
2023/05/25 01:29:21;;;;;;;36.78;12.23;;;;;;;8.85;100.00;101936.66;5089049;28;20028;-74
2023/05/25 01:31:46;;;;;;;35.97;12.52;;;;;;;8.76;100.00;101932.06;5101808;28;20027;-75
2023/05/25 01:34:12;;;;;;;35.95;13.23;;;;;;;8.81;100.00;101927.22;5101986;28;20032;-74
2023/05/25 01:36:38;;;;;;;34.38;12.98;;;;;;;8.85;100.00;101936.66;5099073;28;20027;-74
2023/05/25 01:39:05;;;;;;;26.50;12.40;;;;;;;8.77;100.00;101928.41;5083519;28;20027;-74
2023/05/25 01:41:30;;;;;;;;;;;;;;;8.71;100.00;101928.03;5098216;28;20058;-74
2023/05/25 01:43:56;;;;;;;29.00;13.38;;;;;;;8.71;100.00;101931.59;5091855;28;20370;-74
2023/05/25 01:46:34;;;;;;;40.73;12.40;;;;;;;8.64;100.00;101930.38;5085170;28;20016;-74
2023/05/25 01:49:25;;;;;;;26.58;11.38;;;;;;;8.64;100.00;101935.69;5078934;28;20051;-74
2023/05/25 01:52:10;;;;;;;24.67;11.63;;;;;;;8.59;100.00;101933.41;5079747;28;20497;-74
2023/05/25 01:54:39;;;;;;;31.67;10.77;;;;;;;8.59;100.00;101935.19;5081905;28;20096;-74
2023/05/25 01:57:09;;;;;;;34.75;11.30;;;;;;;8.61;100.00;101930.59;5088742;28;20545;-74
2023/05/25 01:59:36;;;;;;;36.42;13.65;;;;;;;8.61;100.00;101930.59;5068649;28;20028;-74
2023/05/25 02:02:04;;;;;;;32.25;11.27;;;;;;;8.57;100.00;101934.47;5087810;28;20058;-74
2023/05/25 02:04:30;;;;;;;35.10;12.25;;;;;;;8.52;100.00;101931.31;5088500;28;20525;-74
2023/05/25 02:06:55;;;;;;;28.10;12.55;;;;;;;8.47;100.00;101929.00;5088327;28;20717;-74
2023/05/25 02:09:21;;;;;;;26.55;12.43;;;;;;;8.43;100.00;101925.75;5088799;28;20061;-74
2023/05/25 02:11:47;;;;;;;29.57;12.80;;;;;;;8.35;100.00;101933.44;5085153;28;20154;-74
2023/05/25 02:14:13;;;;;;;36.17;13.05;;;;;;;8.45;100.00;101949.56;5070973;28;20112;-74
2023/05/25 02:16:38;;;;;;;35.92;12.85;;;;;;;8.44;100.00;101946.06;5088554;28;20061;-74
2023/05/25 02:19:04;;;;;;;39.33;12.40;;;;;;;8.34;100.00;101942.41;5079587;28;20758;-74
2023/05/25 02:21:30;;;;;;;32.33;12.50;;;;;;;8.27;100.00;101943.00;5063356;28;20532;-74
2023/05/25 02:23:56;;;;;;;33.65;12.50;;;;;;;8.26;100.00;101942.13;5086250;27;20046;-73
2023/05/25 02:26:23;;;;;;;33.05;12.75;;;;;;;8.28;100.00;101950.84;5060495;28;20016;-73
2023/05/25 02:28:50;;;;;;;36.30;12.40;;;;;;;8.27;100.00;101954.50;5100105;28;20906;-74
2023/05/25 02:31:17;;;;;;;32.25;12.02;;;;;;;8.30;100.00;101956.06;5088346;28;20462;-73
2023/05/25 02:33:42;;;;;;;36.80;13.48;;;;;;;8.30;100.00;101956.06;5103339;28;20188;-74
2023/05/25 02:36:08;;;;;;;29.93;12.03;;;;;;;8.24;100.00;101944.06;5063097;28;20028;-74
2023/05/25 02:38:33;;;;;;;29.97;12.60;;;;;;;8.23;100.00;101951.19;5084770;28;20035;-74
2023/05/25 02:40:58;;;;;;;40.00;13.07;;;;;;;8.19;100.00;101947.09;5071219;28;20023;-73
2023/05/25 02:43:24;;;;;;;32.20;13.20;;;;;;;8.25;100.00;101951.94;5082007;28;20934;-74
2023/05/25 02:45:49;;;;;;;23.20;12.47;;;;;;;8.23;100.00;101943.22;5059216;28;20030;-74
2023/05/25 02:48:15;;;;;;;34.17;13.87;;;;;;;8.12;100.00;101945.00;5084668;28;20042;-74
2023/05/25 02:50:40;;;;;;;41.37;14.20;;;;;;;8.10;100.00;101953.13;5088157;28;20023;-73
2023/05/25 02:53:09;;;;;;;37.17;14.32;;;;;;;8.06;100.00;101956.13;5087693;28;20020;-74
2023/05/25 02:55:36;;;;;;;36.72;13.70;;;;;;;8.15;100.00;101955.44;5087788;28;20405;-74
2023/05/25 02:58:02;;;;;;;34.33;13.75;;;;;;;8.15;100.00;101961.59;5087830;28;20031;-74
2023/05/25 03:00:49;;;;;;;34.88;14.25;;;;;;;8.06;100.00;101961.47;5105752;28;20024;-74
2023/05/25 03:03:14;;;;;;;33.17;14.57;;;;;;;8.11;100.00;101964.59;5065027;28;20055;-73
2023/05/25 03:05:40;;;;;;;29.05;12.70;;;;;;;8.13;100.00;101957.38;5082258;28;20106;-75
2023/05/25 03:08:05;;;;;;;33.27;14.70;;;;;;;8.07;100.00;101957.81;5067601;28;20040;-75
2023/05/25 03:10:31;;;;;;;42.67;14.27;;;;;;;8.00;100.00;101954.78;5085748;28;20023;-75
2023/05/25 03:12:56;;;;;;;29.23;13.00;;;;;;;7.96;100.00;101967.47;5079703;28;20028;-74
2023/05/25 03:15:23;;;;;;;;;;;;;;;7.95;100.00;101973.72;5085041;28;20376;-74
2023/05/25 03:17:49;;;;;;;30.77;11.43;;;;;;;8.00;100.00;101981.38;5070695;28;20683;-74
2023/05/25 03:20:15;;;;;;;33.63;12.03;;;;;;;8.01;100.00;101975.09;5087571;28;20065;-73
2023/05/25 03:22:44;;;;;;;29.98;11.60;;;;;;;8.08;100.00;101986.09;5075401;28;20793;-75
2023/05/25 03:25:12;;;;;;;29.53;10.93;;;;;;;8.15;100.00;101982.03;5087175;28;20008;-72
2023/05/25 03:27:38;;;;;;;30.00;11.35;;;;;;;8.20;100.00;101986.03;5069108;28;20105;-74
2023/05/25 03:30:04;;;;;;;;;;;;;;;8.35;100.00;101985.81;5075728;28;20020;-75
2023/05/25 03:32:31;;;;;;;39.97;11.20;;;;;;;8.40;100.00;101987.19;5070043;28;19922;-73
2023/05/25 03:34:56;;;;;;;28.75;10.82;;;;;;;8.41;100.00;101983.56;5087003;28;20047;-75
2023/05/25 03:37:21;;;;;;;32.33;13.10;;;;;;;8.48;100.00;101985.78;5087251;28;20493;-74
2023/05/25 03:39:47;;;;;;;34.77;10.73;;;;;;;8.55;100.00;101987.84;5084529;28;20277;-74
2023/05/25 03:42:12;;;;;;;28.00;10.77;;;;;;;8.65;100.00;101988.81;5087187;28;20052;-74
2023/05/25 03:44:37;;;;;;;26.83;10.47;;;;;;;8.68;100.00;101985.06;5075283;28;20436;-74
2023/05/25 03:47:03;;;;;;;37.10;9.87;;;;;;;8.72;100.00;101991.84;5070115;28;20429;-75
2023/05/25 03:49:31;;;;;;;23.15;9.70;;;;;;;8.66;100.00;101974.53;5087164;28;20059;-73
2023/05/25 03:51:58;;;;;;;21.48;10.10;;;;;;;8.69;100.00;101980.59;5087008;28;20032;-74
2023/05/25 03:54:24;;;;;;;27.13;10.23;;;;;;;8.69;100.00;101975.28;5080824;28;20016;-73
2023/05/25 03:56:50;;;;;;;25.88;11.15;;;;;;;8.80;100.00;101978.78;5084312;28;20428;-74
2023/05/25 03:59:15;;;;;;;27.85;9.70;;;;;;;8.90;100.00;101975.38;5083785;28;20016;-74
2023/05/25 04:01:41;;;;;;;26.80;11.03;;;;;;;8.80;100.00;101968.13;5086944;28;20117;-75
2023/05/25 04:04:06;;;;;;;26.33;10.20;;;;;;;8.84;100.00;101969.56;5104825;28;20077;-75
2023/05/25 04:06:32;;;;;;;25.03;9.83;;;;;;;8.76;100.00;101966.69;5069923;28;20035;-74
2023/05/25 04:08:58;;;;;;;25.05;9.40;;;;;;;8.79;100.00;101957.59;5069840;28;20110;-74
2023/05/25 04:11:26;;;;;;;23.90;10.02;;;;;;;8.81;100.00;101964.50;5087173;28;20045;-74
2023/05/25 04:13:52;;;;;;;25.33;8.02;;;;;;;8.87;100.00;101965.81;5086531;28;20020;-75
2023/05/25 04:16:18;;;;;;;25.80;8.47;;;;;;;9.04;100.00;101961.81;5070292;28;20896;-75
2023/05/25 04:18:44;;;;;;;23.30;7.72;;;;;;;9.02;100.00;101939.78;5070324;28;20023;-75
2023/05/25 04:21:09;;;;;;;35.10;8.33;;;;;;;9.02;100.00;101942.44;5085850;28;20497;-74
2023/05/25 04:23:35;;;;;;;29.87;7.93;;;;;;;9.08;100.00;101934.81;5086333;28;20020;-74
2023/05/25 04:26:02;;;;;;;22.35;7.47;;;;;;;9.00;100.00;101929.25;5086669;28;20048;-75
2023/05/25 04:28:27;;;;;;;;;;;;;;;9.07;100.00;101934.94;5077910;28;20024;-74
2023/05/25 04:30:55;;;;;;;28.77;8.95;;;;;;;9.17;100.00;101932.38;5068440;28;20343;-75
2023/05/25 04:33:50;;;;;;;24.48;6.80;;;;;;;9.06;100.00;101926.09;5071811;28;20038;-74
2023/05/25 04:36:24;;;;;;;25.58;8.30;;;;;;;9.10;100.00;101932.00;5082116;28;20040;-75
2023/05/25 04:38:54;;;;;;;22.20;7.35;;;;;;;9.11;100.00;101931.06;5087889;28;20032;-74
2023/05/25 04:41:19;;;;;;;29.95;7.95;;;;;;;9.13;100.00;101930.91;5090455;28;20022;-75
2023/05/25 04:43:49;;;;;;;22.95;7.45;;;;;;;9.16;100.00;101931.53;5081325;28;20023;-74
2023/05/25 04:46:15;;;;;;;27.17;7.10;;;;;;;8.99;100.00;101927.56;5073450;28;20019;-75
2023/05/25 04:48:42;;;;;;;25.45;8.57;;;;;;;8.86;100.00;101916.19;5089651;28;20119;-75
2023/05/25 04:51:08;;;;;;;24.92;9.95;;;;;;;8.95;100.00;101926.09;5099912;28;20106;-74
2023/05/25 04:53:34;;;;;;;21.58;6.95;;;;;;;8.99;100.00;101924.03;5078019;28;20401;-74
2023/05/25 04:56:00;;;;;;;;;;;;;;;9.15;100.00;101929.81;5089177;28;20024;-75
2023/05/25 04:58:28;;;;;;;22.45;7.75;;;;;;;9.23;100.00;101937.22;5077186;28;19916;-75
2023/05/25 05:00:54;;;;;;;26.15;7.45;;;;;;;9.16;100.00;101926.19;5089510;28;20138;-72
2023/05/25 05:03:20;;;;;;;22.02;6.82;;;;;;;9.26;100.00;101942.28;5081267;28;20086;-75
2023/05/25 05:05:45;;;;;;;22.90;8.30;;;;;;;9.49;100.00;101938.56;5089870;28;20043;-75
2023/05/25 05:08:15;;;;;;;20.30;6.97;;;;;;;9.70;100.00;101938.63;5090425;28;20023;-75
2023/05/25 05:10:41;;;;;;;25.37;7.53;;;;;;;9.71;100.00;101921.63;5089816;28;20034;-74
2023/05/25 05:13:06;;;;;;;25.93;6.63;;;;;;;9.61;100.00;101906.53;5089167;28;20168;-74
2023/05/25 05:15:32;;;;;;;21.83;6.35;;;;;;;9.58;100.00;101910.31;5086355;28;20545;-75
2023/05/25 05:17:58;;;;;;;23.52;6.45;;;;;;;9.59;100.00;101912.00;5105278;28;20951;-75
2023/05/25 05:20:23;;;;;;;26.60;7.30;;;;;;;9.60;100.00;101919.03;5089681;28;20447;-73
2023/05/25 05:22:49;;;;;;;18.73;6.47;;;;;;;9.76;100.00;101925.75;5080885;28;20640;-75
2023/05/25 05:25:15;;;;;;;;;;;;;;;9.69;100.00;101922.75;5089969;28;20028;-75
2023/05/25 05:27:41;;;;;;;27.67;8.18;;;;;;;9.85;100.00;101912.47;5089675;28;19914;-74
2023/05/25 05:30:19;;;;;;;31.92;7.60;;;;;;;10.02;100.00;101908.41;5103276;28;20032;-73
2023/05/25 05:32:44;;;;;;;17.90;5.97;;;;;;;10.28;100.00;101921.34;5088674;28;20076;-75
2023/05/25 05:35:11;;;;;;;;;;;;;;;10.44;100.00;101908.41;5085698;28;20509;-74
2023/05/25 05:37:39;;;;;;;25.25;6.50;;;;;;;10.81;100.00;101909.66;5083971;28;19912;-75
2023/05/25 05:40:06;;;;;;;24.87;6.77;;;;;;;11.05;100.00;101894.13;5086651;28;20027;-74
2023/05/25 05:42:33;;;;;;;28.70;6.13;;;;;;;10.93;100.00;101858.66;5087158;28;20545;-74
2023/05/25 05:44:59;;;;;;;21.00;5.20;;;;;;;10.85;100.00;101826.44;5063348;28;20055;-74
2023/05/25 05:47:24;;;;;;;26.83;6.83;;;;;;;11.09;100.00;101827.84;5104010;28;20035;-75
2023/05/25 05:49:49;;;;;;;17.33;5.53;;;;;;;11.17;100.00;101799.44;5058941;28;20016;-74
2023/05/25 05:52:15;;;;;;;26.23;5.80;;;;;;;11.09;100.00;101775.25;5093750;28;20031;-75
2023/05/25 05:54:40;;;;;;;30.27;6.13;;;;;;;11.18;100.00;101765.53;5087034;28;20052;-75
2023/05/25 05:57:09;;;;;;;18.08;5.55;;;;;;;11.16;100.00;101749.63;5081338;28;20050;-75
2023/05/25 05:59:35;;;;;;;27.10;7.27;;;;;;;11.02;100.00;101698.47;5094893;28;20068;-75
2023/05/25 06:02:00;;;;;;;27.60;7.57;;;;;;;11.21;100.00;101709.13;5068659;28;20035;-75
2023/05/25 06:04:27;;;;;;;29.17;5.53;;;;;;;11.56;100.00;101696.94;5094392;28;20028;-74
2023/05/25 06:06:54;;;;;;;28.08;7.63;;;;;;;11.83;100.00;101674.75;5099903;28;20717;-74
2023/05/25 06:09:19;;;;;;;28.40;6.45;;;;;;;11.78;100.00;101599.44;5087997;28;20019;-74
2023/05/25 06:11:46;;;;;;;31.70;6.90;;;;;;;11.48;100.00;101537.22;5094538;28;20114;-75
2023/05/25 06:14:11;;;;;;;24.30;6.47;;;;;;;11.57;100.00;101555.06;5072574;28;20268;-75
2023/05/25 06:16:37;;;;;;;28.87;5.70;;;;;;;12.27;100.00;101557.16;5086577;28;20470;-75
2023/05/25 06:19:03;;;;;;;35.47;7.57;;;;;;;12.35;100.00;101462.66;5079530;28;20349;-74
2023/05/25 06:21:28;;;;;;;26.90;7.38;;;;;;;13.01;100.00;101479.94;5079346;28;20486;-74
2023/05/25 06:23:56;;;;;;;20.40;5.23;;;;;;;13.61;100.00;101382.44;5097441;28;20042;-74
2023/05/25 06:26:22;;;;;;;24.17;5.18;;;;;;;15.09;100.00;101283.44;5087626;28;20397;-74
2023/05/25 06:28:48;;;;;;;24.17;5.50;;;;;;;15.44;100.00;100952.91;5075475;28;20472;-74
2023/05/25 06:31:14;;;;;;;;;;;;;;;15.04;100.00;100780.34;5098116;27;20059;-75
2023/05/25 06:33:39;;;;;;;24.60;5.57;;;;;;;14.25;100.00;100751.47;5071878;28;19908;-76
2023/05/25 06:36:06;;;;;;;24.75;6.50;;;;;;;14.50;100.00;100843.31;5078552;28;20051;-75
2023/05/25 06:38:32;;;;;;;;;;;;;;;15.52;100.00;100837.06;5098287;28;20050;-75
2023/05/25 06:41:02;;;;;;;23.13;7.18;;;;;;;15.50;100.00;100648.94;5097740;28;19915;-74
2023/05/25 06:43:28;;;;;;;18.80;5.88;;;;;;;15.50;100.00;100559.28;5067530;28;20088;-75
2023/05/25 06:46:16;;;;;;;21.15;5.22;;;;;;;16.34;100.00;100588.66;5086475;28;20020;-75
2023/05/25 06:48:42;;;;;;;26.05;5.70;;;;;;;16.81;100.00;100346.91;5087485;28;20032;-75
2023/05/25 06:51:08;;;;;;;21.85;6.65;;;;;;;16.00;98.24;100261.09;5061847;28;20129;-75
2023/05/25 06:53:33;;;;;;;24.90;5.77;;;;;;;16.12;97.71;100337.50;5091863;28;20262;-74
2023/05/25 06:55:58;;;;;;;32.10;6.27;;;;;;;15.50;98.68;100406.78;5083561;28;20440;-74
2023/05/25 06:58:24;;;;;;;21.60;6.93;;;;;;;15.48;99.35;100507.56;5096205;28;20043;-75
2023/05/25 07:00:49;;;;;;;28.53;5.90;;;;;;;15.87;99.07;100637.97;5098853;28;20031;-75
2023/05/25 07:03:15;;;;;;;23.47;5.10;;;;;;;14.41;100.00;100533.69;5076352;28;20030;-75
2023/05/25 07:05:41;;;;;;;27.35;6.07;;;;;;;12.81;100.00;100589.81;5087085;28;20776;-75
2023/05/25 07:08:06;;;;;;;28.02;6.57;;;;;;;12.63;100.00;100971.28;5095863;28;20027;-75
2023/05/25 07:10:33;;;;;;;24.83;6.77;;;;;;;12.68;100.00;101084.13;5073381;28;20032;-75
2023/05/25 07:12:58;;;;;;;30.13;7.00;;;;;;;13.42;100.00;101212.75;5083062;28;20040;-73
2023/05/25 07:15:23;;;;;;;25.60;7.37;;;;;;;13.26;100.00;101076.84;5083168;28;20050;-74
2023/05/25 07:17:49;;;;;;;23.83;6.50;;;;;;;12.97;100.00;101026.50;5086124;28;20037;-75
2023/05/25 07:20:14;;;;;;;27.43;6.30;;;;;;;13.33;100.00;101077.00;5095053;28;20030;-75
2023/05/25 07:22:40;;;;;;;29.00;7.67;;;;;;;14.32;100.00;101055.84;5097169;28;20235;-76
2023/05/25 07:25:06;;;;;;;31.58;7.25;;;;;;;15.12;100.00;101014.97;5086527;28;20023;-75
2023/05/25 07:27:32;;;;;;;25.15;6.25;;;;;;;15.75;98.45;100878.09;5093792;28;20028;-75
2023/05/25 07:29:58;;;;;;;23.88;5.25;;;;;;;14.98;95.68;100599.97;5069969;28;20248;-75
2023/05/25 07:32:23;;;;;;;24.23;6.30;;;;;;;14.29;96.75;100603.19;5098361;28;20042;-74
2023/05/25 07:34:48;;;;;;;35.97;6.60;;;;;;;14.25;99.04;100850.81;5092610;28;20036;-74
2023/05/25 07:37:13;;;;;;;26.67;6.23;;;;;;;14.38;99.89;100950.41;5092264;28;20037;-74
2023/05/25 07:39:40;;;;;;;36.22;6.07;;;;;;;13.80;96.67;100660.22;5085718;28;20075;-75
2023/05/25 07:42:06;;;;;;;31.30;6.53;;;;;;;13.85;96.80;100727.56;5090180;28;20501;-74
2023/05/25 07:44:31;;;;;;;27.03;6.67;;;;;;;15.23;96.98;101069.31;5091298;28;20339;-75
2023/05/25 07:46:57;;;;;;;32.60;7.03;;;;;;;15.93;93.11;100903.72;5091792;28;20084;-74
2023/05/25 07:49:22;;;;;;;23.47;6.07;;;;;;;16.39;91.58;100909.50;5080201;28;20427;-76
2023/05/25 07:51:47;;;;;;;16.20;6.03;;;;;;;16.43;87.23;100549.66;5091616;28;20455;-75
2023/05/25 07:54:13;;;;;;;24.47;7.37;;;;;;;16.08;88.00;100604.72;5065890;28;20028;-75
2023/05/25 07:56:38;;;;;;;30.83;7.40;;;;;;;15.80;89.97;100770.69;5080795;28;20093;-74
2023/05/25 07:59:03;;;;;;;29.00;6.60;;;;;;;15.56;88.97;100722.66;5083516;28;20036;-74
2023/05/25 08:01:29;;;;;;;23.53;6.00;;;;;;;15.52;87.26;100579.63;5096992;28;20024;-74
2023/05/25 08:03:55;;;;;;;27.23;7.38;;;;;;;15.46;87.71;100660.28;5090964;28;20088;-73
2023/05/25 08:06:20;;;;;;;25.17;7.00;;;;;;;15.27;89.88;100824.00;5099001;28;20023;-73
2023/05/25 08:08:46;;;;;;;30.67;7.00;;;;;;;14.96;91.08;100902.22;5085923;28;20032;-73
2023/05/25 08:11:12;;;;;;;27.97;5.57;;;;;;;15.48;91.78;101076.09;5078417;28;20073;-73
2023/05/25 08:13:38;;;;;;;31.52;7.20;;;;;;;14.94;89.93;100840.63;5088454;28;20590;-74
2023/05/25 08:16:03;;;;;;;24.25;5.93;;;;;;;15.82;90.68;101136.59;5086363;28;20850;-73
2023/05/25 08:18:30;;;;;;;27.50;6.85;;;;;;;15.32;88.77;100858.41;5085422;28;20075;-73
2023/05/25 08:20:56;;;;;;;27.20;5.75;;;;;;;14.87;90.27;100922.19;5082909;28;20078;-73
2023/05/25 08:23:21;;;;;;;31.40;6.25;;;;;;;15.09;91.26;101090.63;5096843;28;20078;-74
2023/05/25 08:25:46;;;;;;;29.80;6.40;;;;;;;15.00;88.59;100865.91;5067557;28;20019;-74
2023/05/25 08:28:12;;;;;;;29.70;6.50;;;;;;;14.48;87.06;100668.06;5085395;28;20109;-73
2023/05/25 08:30:37;;;;;;;28.03;6.10;;;;;;;15.93;90.84;101383.84;5087300;28;20512;-73
2023/05/25 08:33:03;;;;;;;26.30;6.87;;;;;;;16.39;84.97;100906.78;5069926;28;20480;-73
2023/05/25 08:35:29;;;;;;;;;;;;;;;16.26;83.64;100855.50;5070761;28;20020;-74
2023/05/25 08:37:54;;;;;;;23.35;7.50;;;;;;;15.75;82.77;100681.59;5083856;28;19934;-74
2023/05/25 08:40:21;;;;;;;24.63;6.13;;;;;;;15.79;83.81;100862.41;5088743;28;20022;-75
2023/05/25 08:42:47;;;;;;;28.55;6.63;;;;;;;16.23;80.66;100664.66;5100178;28;20043;-74
2023/05/25 08:45:12;;;;;;;20.83;5.10;;;;;;;16.25;79.74;100590.69;5084754;28;20019;-74
2023/05/25 08:47:43;;;;;;;27.57;6.20;;;;;;;15.91;80.67;100685.84;5068219;28;20666;-74
2023/05/25 08:50:11;;;;;;;33.38;5.97;;;;;;;15.39;80.39;100531.13;5108296;27;20745;-73
2023/05/25 08:52:44;;;;;;;28.58;7.30;;;;;;;15.63;81.55;100778.16;5096332;27;20057;-73
2023/05/25 08:55:10;;;;;;;28.17;6.60;;;;;;;15.78;82.98;100966.56;5095178;28;20378;-73
2023/05/25 08:57:53;;;;;;;26.45;6.45;;;;;;;16.50;79.63;100837.19;5084647;28;20039;-74
2023/05/25 09:00:24;;;;;;;20.75;5.95;;;;;;;16.00;77.65;100535.72;5072361;28;20493;-73
2023/05/25 09:03:16;;;;;;;34.83;6.88;;;;;;;15.86;78.79;100637.16;5080918;28;20028;-74
2023/05/25 09:05:42;;;;;;;25.58;5.80;;;;;;;15.98;80.36;100852.81;5103378;27;20032;-73
2023/05/25 09:08:08;;;;;;;23.60;6.13;;;;;;;16.17;82.18;101099.09;5102763;28;20439;-74
2023/05/25 09:10:34;;;;;;;;;;;;;;;15.23;79.86;100577.16;5094837;28;20054;-74
2023/05/25 09:13:00;;;;;;;;;;;;;;;15.05;83.15;100922.63;5090840;28;19919;-75
2023/05/25 09:15:25;;;;;;;33.50;5.97;;;;;;;15.69;81.72;100997.28;5089009;28;19971;-73
2023/05/25 09:17:51;;;;;;;28.13;6.97;;;;;;;15.50;82.17;100947.59;5101454;28;20032;-73
2023/05/25 09:20:18;;;;;;;31.37;6.93;;;;;;;15.14;81.65;100830.06;5096844;28;20490;-73
2023/05/25 09:22:44;;;;;;;27.02;7.70;;;;;;;15.38;82.72;101010.97;5088413;28;20587;-74
2023/05/25 09:25:10;;;;;;;37.17;7.07;;;;;;;15.45;84.23;101159.84;5092112;28;20024;-73
2023/05/25 09:27:36;;;;;;;31.83;5.90;;;;;;;15.95;82.91;101166.38;5087179;28;20270;-74
2023/05/25 09:30:03;;;;;;;33.67;7.15;;;;;;;16.43;80.37;101066.19;5098791;28;20046;-74
2023/05/25 09:32:29;;;;;;;22.38;5.47;;;;;;;17.09;80.30;101206.19;5068897;28;20482;-73
2023/05/25 09:34:56;;;;;;;22.00;5.90;;;;;;;16.88;78.49;100935.53;5084951;28;20058;-73
2023/05/25 09:37:22;;;;;;;32.60;6.53;;;;;;;16.53;77.97;100809.84;5091821;28;20024;-73
2023/05/25 09:39:50;;;;;;;23.55;5.40;;;;;;;16.31;76.99;100677.94;5094249;28;20036;-73
2023/05/25 09:42:16;;;;;;;28.70;7.00;;;;;;;15.98;77.34;100669.72;5088590;28;20043;-73
2023/05/25 09:44:42;;;;;;;;;;;;;;;16.56;78.09;100949.59;5101610;28;20102;-73
2023/05/25 09:47:08;;;;;;;26.38;7.13;;;;;;;16.94;79.30;101154.19;5097923;28;20030;-73
2023/05/25 09:49:34;;;;;;;31.10;7.68;;;;;;;17.18;79.07;101139.44;5088617;28;20034;-73
2023/05/25 09:52:00;;;;;;;;;;;;;;;17.36;77.48;101031.84;5081127;28;20060;-73
2023/05/25 09:54:26;;;;;;;36.50;7.57;;;;;;;16.23;75.54;100521.91;5081994;28;20359;-73
2023/05/25 09:56:51;;;;;;;35.83;7.82;;;;;;;16.41;76.48;100761.94;5094247;28;20031;-73
2023/05/25 09:59:17;;;;;;;40.72;7.10;;;;;;;16.87;77.70;101014.75;5084429;28;20467;-73
2023/05/25 10:01:43;;;;;;;29.50;6.90;;;;;;;16.65;76.46;100802.88;5099954;28;20089;-73
2023/05/25 10:04:08;;;;;;;;;;;;;;;15.83;75.14;100423.03;5062666;28;20027;-73
2023/05/25 10:06:34;;;;;;;31.20;7.05;;;;;;;16.17;76.78;100786.66;5098732;28;19916;-73
2023/05/25 10:09:00;;;;;;;21.02;5.85;;;;;;;18.04;74.19;101034.59;5079934;28;20023;-73
2023/05/25 10:11:27;;;;;;;32.17;6.93;;;;;;;19.09;71.76;101001.53;5097501;28;20042;-73
2023/05/25 10:13:52;;;;;;;;;;;;;;;19.29;71.43;100960.84;5075201;28;20059;-74
2023/05/25 10:16:24;;;;;;;23.88;7.53;;;;;;;19.81;69.79;100948.94;5098604;27;20030;-74
2023/05/25 10:19:04;;;;;;;27.65;6.05;;;;;;;20.45;67.66;100856.63;5097357;28;20496;-74
2023/05/25 10:21:31;;;;;;;23.55;6.30;;;;;;;21.52;66.00;100913.19;5093294;28;20042;-74
2023/05/25 10:24:03;;;;;;;25.55;6.72;;;;;;;20.55;64.99;100565.94;5070552;28;20031;-74
2023/05/25 10:26:34;;;;;;;20.08;5.80;;;;;;;20.98;64.11;100624.56;5098511;28;20030;-75
2023/05/25 10:29:03;;;;;;;29.83;8.23;;;;;;;20.55;61.95;100263.03;5082484;28;20119;-74
2023/05/25 10:31:30;;;;;;;22.75;5.32;;;;;;;20.77;62.34;100382.59;5084491;28;20055;-74
2023/05/25 10:33:57;;;;;;;25.15;5.80;;;;;;;20.88;60.38;100261.53;5082733;28;20031;-74
2023/05/25 10:36:25;;;;;;;29.55;6.65;;;;;;;20.69;60.70;100273.63;5080428;28;20429;-74
2023/05/25 10:38:51;;;;;;;25.60;6.18;;;;;;;20.47;62.45;100553.53;5097632;28;20027;-74
2023/05/25 10:41:19;;;;;;;29.95;7.63;;;;;;;20.21;59.27;99953.09;5103846;28;20031;-74
2023/05/25 10:43:45;;;;;;;21.00;6.38;;;;;;;20.19;60.08;100093.44;5084607;28;20157;-74
2023/05/25 10:46:13;;;;;;;23.10;6.03;;;;;;;20.70;59.60;100259.00;5106001;28;20062;-74
2023/05/25 10:48:45;;;;;;;24.23;6.95;;;;;;;20.98;58.44;100245.47;5099779;28;20027;-74
2023/05/25 10:51:10;;;;;;;24.08;6.45;;;;;;;20.62;58.08;100030.50;5094484;28;20087;-74
2023/05/25 10:53:36;;;;;;;29.67;6.37;;;;;;;20.45;58.89;100203.19;5103728;28;20020;-74
2023/05/25 10:56:04;;;;;;;25.30;6.25;;;;;;;20.54;60.70;100462.06;5084028;28;20160;-73
2023/05/25 10:58:30;;;;;;;24.98;6.70;;;;;;;21.29;59.99;100598.94;5081841;28;20031;-74
2023/05/25 11:01:02;;;;;;;;;;;;;;;21.63;59.86;100664.34;5078672;28;20039;-74
2023/05/25 11:03:43;;;;;;;22.83;7.35;;;;;;;21.92;59.15;100635.38;5096683;28;19922;-74
2023/05/25 11:06:20;;;;;;;30.27;7.00;;;;;;;22.34;57.75;100556.28;5090755;28;20031;-74
2023/05/25 11:08:58;;;;;;;20.48;6.45;;;;;;;22.62;58.27;100715.09;5098973;28;20031;-74
2023/05/25 11:11:42;;;;;;;21.13;6.15;;;;;;;22.74;56.92;100552.59;5098489;28;20031;-74
2023/05/25 11:14:29;;;;;;;22.05;6.05;;;;;;;23.41;55.79;100611.59;5095545;28;20028;-74
2023/05/25 11:17:09;;;;;;;23.98;5.50;;;;;;;23.15;52.39;99987.69;5084122;28;20039;-74